Main page
METAR-TAF:

Airports :

Milan, Italy

Malpensa Airport

latitude: 45-37N, longitude: 008-44E, elevation: 234 m

Current weather observation

The report was made 21 minutes ago, at 07:20 UTC
Wind 5 kt from the East/Southeast
Temperature 17°C
Humidity 82%
Pressure 1012 hPa
Visibility 10 km or more
Scattered clouds at a height of 2000 ft
Broken clouds at a height of 6000 ft

METAR: LIMC 310720Z 12005KT 9999 SCT020 BKN060 17/14 Q1012 NOSIG

Time: 09:41 (07:41 UTC)

Forecast

The report was made 2 hours and 41 minutes ago, at 05:00 UTC
Forecast valid from 31 at 06 UTC to 01 at 12 UTC
Wind 5 kt from variable directions
Visibility: 8000 m
Scattered clouds at a height of 2000 ft
Broken clouds at a height of 5000 ft
Temporary
from 31 at 09 UTC to 31 at 15 UTC
Visibility: 4000 m
thunderstorm, rain
Temporary
from 01 at 06 UTC to 01 at 12 UTC
rain showers

TAF: LIMC 310500Z 3106/0112 VRB05KT 8000 SCT020 BKN050 TEMPO 3109/3115 4000 TSRA TEMPO 0106/0112 SHRA

METAR-TAF

Weather observations and forecasts of more than 4000 airports (METAR and TAF reports).

The available stations are represented by yellow and red dots on the map.

Hover mouse over dot to see the name of the station.

Then click to see weather observations and forecasts.

To change the map : click on the green buttons with a black cross to zoom in, on the green button with a dash to zoom out, or on the green arrows for adjacent maps.


METAR-TAF: